Time;durP1;ratioP1;P1;durP2;ratioP2;P2;SDS_P1;SDS_P2;PMS_P1;PMS_P2;Temp;Humidity;BMP_temperature;BMP_pressure;BME280_temperature;BME280_humidity;BME280_pressure;Samples;Min_cycle;Max_cycle;Signal;HPM_P1;HPM_P2
2021/01/23 00:02:05;;;;;;;1.10;0.70;;;15.00;76.50;;;;;;5095549;28;20112;-45
2021/01/23 00:04:31;;;;;;;1.45;0.70;;;15.00;76.50;;;;;;5072243;28;20037;-43
2021/01/23 00:06:58;;;;;;;2.60;0.70;;;15.00;76.40;;;;;;5063724;28;20092;-43
2021/01/23 00:09:24;;;;;;;1.15;0.82;;;15.00;76.40;;;;;;5109547;28;20028;-44
2021/01/23 00:11:50;;;;;;;1.52;0.70;;;15.00;76.40;;;;;;5077391;28;20046;-43
2021/01/23 00:14:16;;;;;;;0.80;0.70;;;15.00;76.40;;;;;;5082526;28;20028;-43
2021/01/23 00:16:43;;;;;;;1.90;0.80;;;15.00;76.40;;;;;;5083289;28;20041;-52
2021/01/23 00:19:09;;;;;;;5.63;1.43;;;15.00;76.30;;;;;;5083969;28;20047;-43
2021/01/23 00:21:36;;;;;;;2.35;0.88;;;15.20;78.50;;;;;;5083646;28;20031;-44
2021/01/23 00:24:03;;;;;;;6.70;1.17;;;15.20;76.90;;;;;;5076660;28;20029;-43
2021/01/23 00:26:29;;;;;;;;;;;15.20;76.80;;;;;;5084426;28;20051;-42
2021/01/23 00:28:55;;;;;;;3.63;0.80;;;15.10;76.70;;;;;;5083734;28;19912;-42
2021/01/23 00:31:21;;;;;;;3.45;0.80;;;15.20;77.10;;;;;;5083528;28;20051;-43
2021/01/23 00:33:47;;;;;;;3.22;0.80;;;15.10;77.10;;;;;;5083105;28;20032;-42
2021/01/23 00:36:13;;;;;;;1.60;0.63;;;15.10;77.10;;;;;;5083581;28;20040;-44
2021/01/23 00:38:40;;;;;;;4.57;0.85;;;15.10;77.10;;;;;;5080968;28;20028;-42
2021/01/23 00:41:06;;;;;;;4.78;0.98;;;15.10;77.10;;;;;;5083976;28;20029;-44
2021/01/23 00:43:32;;;;;;;3.80;1.17;;;15.10;77.10;;;;;;5083499;28;20035;-42
2021/01/23 00:45:58;;;;;;;3.70;0.70;;;15.10;77.00;;;;;;5083424;28;20012;-45
2021/01/23 00:48:24;;;;;;;2.00;0.98;;;15.10;76.90;;;;;;5083662;28;20032;-43
2021/01/23 00:50:51;;;;;;;6.05;0.80;;;15.10;76.80;;;;;;5083553;28;20032;-45
2021/01/23 00:53:17;;;;;;;2.67;0.80;;;15.00;76.70;;;;;;5083458;28;20059;-42
2021/01/23 00:55:43;;;;;;;5.97;0.90;;;15.10;76.70;;;;;;5083055;28;20043;-44
2021/01/23 00:58:09;;;;;;;7.10;0.88;;;15.00;76.60;;;;;;5083370;28;20052;-43
2021/01/23 01:00:35;;;;;;;4.30;0.80;;;15.00;76.50;;;;;;5083368;28;20021;-44
2021/01/23 01:03:01;;;;;;;2.50;0.80;;;15.00;76.50;;;;;;5083467;28;20028;-42
2021/01/23 01:05:27;;;;;;;3.40;0.88;;;15.00;76.40;;;;;;5083189;28;20025;-44
2021/01/23 01:07:54;;;;;;;1.15;0.70;;;15.00;76.40;;;;;;5083408;28;20082;-44
2021/01/23 01:10:20;;;;;;;2.13;1.00;;;15.00;76.30;;;;;;5083633;28;20077;-42
2021/01/23 01:12:46;;;;;;;2.40;0.80;;;14.90;76.20;;;;;;5089524;28;20088;-43
2021/01/23 01:15:12;;;;;;;3.28;0.65;;;14.90;76.20;;;;;;5089513;28;20024;-42
2021/01/23 01:17:38;;;;;;;3.50;0.60;;;14.90;76.10;;;;;;5089836;28;20060;-46
2021/01/23 01:20:05;;;;;;;3.38;0.70;;;14.90;76.20;;;;;;5089849;28;20054;-43
2021/01/23 01:22:31;;;;;;;3.90;0.80;;;14.90;76.90;;;;;;5090059;28;20033;-44
2021/01/23 01:24:57;;;;;;;5.95;0.80;;;14.80;75.90;;;;;;5089830;28;20067;-46
2021/01/23 01:27:24;;;;;;;1.73;0.60;;;14.90;76.10;;;;;;5089936;28;20091;-42
2021/01/23 01:29:50;;;;;;;1.13;0.77;;;14.80;76.00;;;;;;5089911;28;20058;-42
2021/01/23 01:32:16;;;;;;;1.83;0.80;;;14.80;75.90;;;;;;5089580;28;20485;-42
2021/01/23 01:34:43;;;;;;;3.08;0.73;;;14.80;75.80;;;;;;5089637;28;20039;-45
2021/01/23 01:37:09;;;;;;;3.65;1.00;;;14.80;75.80;;;;;;5089970;28;20042;-45
2021/01/23 01:39:35;;;;;;;1.75;0.75;;;14.80;75.80;;;;;;5089837;28;20055;-42
2021/01/23 01:42:05;;;;;;;2.17;0.73;;;14.70;75.90;;;;;;5090355;28;20031;-43
2021/01/23 01:44:31;;;;;;;2.55;0.90;;;14.70;75.80;;;;;;5089506;28;20048;-41
2021/01/23 01:46:59;;;;;;;2.65;0.70;;;14.70;75.80;;;;;;5089661;28;20091;-43
2021/01/23 01:49:24;;;;;;;;;;;14.70;75.80;;;;;;5092199;28;20500;-43
2021/01/23 01:51:54;;;;;;;2.08;0.90;;;14.70;76.50;;;;;;5089851;28;19908;-42
2021/01/23 01:54:23;;;;;;;4.63;0.95;;;14.60;75.90;;;;;;5089670;28;20029;-44
2021/01/23 01:56:50;;;;;;;1.30;0.73;;;14.60;75.80;;;;;;5089702;28;20028;-44
2021/01/23 01:59:16;;;;;;;1.73;0.90;;;14.60;75.80;;;;;;5093140;28;20044;-43
2021/01/23 02:01:42;;;;;;;1.42;0.65;;;14.60;75.80;;;;;;5089496;28;20036;-43
2021/01/23 02:04:30;;;;;;;1.23;0.60;;;14.60;75.80;;;;;;5089525;28;20024;-43
2021/01/23 02:07:14;;;;;;;1.95;0.85;;;14.60;75.80;;;;;;5089611;28;20036;-45
2021/01/23 02:10:15;;;;;;;2.67;0.77;;;14.50;75.70;;;;;;5091600;28;20028;-43
2021/01/23 02:13:20;;;;;;;3.45;1.00;;;14.50;75.70;;;;;;5079898;28;20063;-42
2021/01/23 02:16:25;;;;;;;4.75;0.80;;;14.50;75.70;;;;;;5087739;28;20065;-42
2021/01/23 02:19:29;;;;;;;2.00;0.70;;;14.50;75.70;;;;;;5089551;28;20024;-43
2021/01/23 02:22:20;;;;;;;1.42;0.70;;;14.40;75.70;;;;;;5089594;28;20036;-44
2021/01/23 02:24:47;;;;;;;2.05;0.88;;;14.40;75.60;;;;;;5084021;28;20036;-42
2021/01/23 02:27:34;;;;;;;2.20;0.95;;;14.40;75.70;;;;;;5085011;28;20029;-43
2021/01/23 02:30:18;;;;;;;2.25;0.90;;;14.30;75.70;;;;;;5086212;28;20017;-43
2021/01/23 02:32:48;;;;;;;2.97;0.85;;;14.30;75.70;;;;;;5084756;28;20153;-42
2021/01/23 02:35:15;;;;;;;4.18;0.90;;;14.30;75.70;;;;;;5084514;28;20050;-43
2021/01/23 02:37:41;;;;;;;2.22;0.98;;;14.30;75.70;;;;;;5086192;28;20024;-44
2021/01/23 02:40:08;;;;;;;3.40;0.90;;;14.30;75.70;;;;;;5085277;28;20411;-42
2021/01/23 02:42:34;;;;;;;2.42;0.60;;;14.20;75.70;;;;;;5095524;28;20115;-43
2021/01/23 02:45:00;;;;;;;2.10;1.00;;;14.20;75.70;;;;;;5085924;28;20039;-44
2021/01/23 02:47:26;;;;;;;1.60;0.85;;;14.20;75.70;;;;;;5085599;28;20076;-43
2021/01/23 02:49:52;;;;;;;1.73;0.90;;;14.20;75.70;;;;;;5085940;28;20032;-43
2021/01/23 02:52:29;;;;;;;1.77;0.70;;;14.20;75.70;;;;;;5095341;28;20088;-43
2021/01/23 02:55:13;;;;;;;4.88;0.90;;;14.20;75.70;;;;;;5085711;28;20071;-43
2021/01/23 02:57:39;;;;;;;2.05;0.90;;;14.10;75.50;;;;;;5084361;28;20063;-42
2021/01/23 03:00:10;;;;;;;3.17;0.80;;;14.10;75.50;;;;;;5084144;28;20133;-42
2021/01/23 03:02:37;;;;;;;1.63;0.70;;;14.10;75.60;;;;;;5085587;28;20028;-42
2021/01/23 03:05:03;;;;;;;;;;;14.10;75.60;;;;;;5084698;28;20028;-47
2021/01/23 03:07:29;;;;;;;1.95;0.88;;;14.00;75.60;;;;;;5085207;28;19944;-43
2021/01/23 03:09:55;;;;;;;1.40;0.82;;;14.00;75.60;;;;;;5083958;28;20028;-44
2021/01/23 03:12:22;;;;;;;1.95;0.60;;;14.00;75.60;;;;;;5095791;28;20111;-43
2021/01/23 03:14:48;;;;;;;2.83;0.90;;;14.00;75.60;;;;;;5085336;28;20070;-42
2021/01/23 03:17:14;;;;;;;1.20;0.73;;;13.90;75.50;;;;;;5084923;28;20036;-45
2021/01/23 03:19:40;;;;;;;1.15;0.90;;;13.90;75.50;;;;;;5085176;28;20021;-43
2021/01/23 03:22:06;;;;;;;1.33;0.70;;;13.90;75.50;;;;;;5085108;28;20028;-44
2021/01/23 03:24:32;;;;;;;2.55;0.85;;;13.90;75.50;;;;;;5085155;28;20088;-42
2021/01/23 03:26:58;;;;;;;1.30;0.82;;;13.90;75.50;;;;;;5084909;28;20021;-44
2021/01/23 03:29:25;;;;;;;1.92;0.98;;;13.80;75.50;;;;;;5084993;28;20481;-42
2021/01/23 03:31:51;;;;;;;1.33;0.75;;;13.80;75.50;;;;;;5084765;28;20028;-42
2021/01/23 03:34:17;;;;;;;2.67;0.90;;;13.80;75.50;;;;;;5084702;28;20084;-42
2021/01/23 03:36:43;;;;;;;2.42;0.70;;;13.80;75.50;;;;;;5084595;28;20091;-42
2021/01/23 03:39:10;;;;;;;1.65;0.70;;;13.80;75.60;;;;;;5084790;28;20017;-44
2021/01/23 03:41:36;;;;;;;2.90;0.88;;;13.70;75.50;;;;;;5094684;28;20034;-42
2021/01/23 03:44:02;;;;;;;1.42;0.73;;;13.70;75.60;;;;;;5083449;28;20035;-42
2021/01/23 03:46:28;;;;;;;1.50;0.70;;;13.70;75.50;;;;;;5083756;28;20021;-44
2021/01/23 03:48:54;;;;;;;2.05;0.90;;;13.70;75.70;;;;;;5084406;28;20040;-43
2021/01/23 03:51:20;;;;;;;1.48;0.70;;;13.60;75.60;;;;;;5084689;28;20097;-42
2021/01/23 03:53:47;;;;;;;1.02;0.75;;;13.60;75.50;;;;;;5084291;28;20017;-42
2021/01/23 03:56:13;;;;;;;1.70;0.93;;;13.60;75.60;;;;;;5086831;28;20040;-42
2021/01/23 03:58:39;;;;;;;1.30;0.80;;;13.50;75.50;;;;;;5085319;28;20044;-44
2021/01/23 04:01:05;;;;;;;2.83;0.77;;;13.50;75.60;;;;;;5103684;28;20032;-43
2021/01/23 04:03:31;;;;;;;0.70;0.68;;;13.50;75.60;;;;;;5104799;28;20024;-43
2021/01/23 04:05:57;;;;;;;2.05;0.80;;;13.50;75.60;;;;;;5104477;28;20028;-43
2021/01/23 04:08:24;;;;;;;1.75;0.80;;;13.50;75.60;;;;;;5104210;28;20038;-43
2021/01/23 04:10:50;;;;;;;1.80;0.80;;;13.50;75.70;;;;;;5089891;28;20027;-42
2021/01/23 04:13:16;;;;;;;1.50;0.82;;;13.40;75.60;;;;;;5080451;28;20476;-43
2021/01/23 04:15:42;;;;;;;1.27;0.90;;;13.40;75.70;;;;;;5081899;28;20040;-42
2021/01/23 04:18:08;;;;;;;1.23;0.73;;;13.40;75.70;;;;;;5089037;28;20849;-43
2021/01/23 04:20:34;;;;;;;1.02;0.88;;;13.40;75.70;;;;;;5078184;28;20033;-44
2021/01/23 04:23:01;;;;;;;2.72;0.95;;;13.40;75.70;;;;;;5094107;28;20032;-44
2021/01/23 04:25:27;;;;;;;2.08;0.80;;;13.30;75.60;;;;;;5083459;28;20043;-42
2021/01/23 04:27:54;;;;;;;1.40;0.80;;;13.30;75.70;;;;;;5078002;28;20040;-42
2021/01/23 04:30:21;;;;;;;1.48;0.70;;;13.30;75.70;;;;;;5079549;28;20067;-44
2021/01/23 04:32:47;;;;;;;1.87;0.83;;;13.30;75.70;;;;;;5085275;28;20035;-42
2021/01/23 04:35:13;;;;;;;2.22;0.90;;;13.30;75.70;;;;;;5077492;28;20032;-42
2021/01/23 04:37:39;;;;;;;2.85;0.73;;;13.20;75.70;;;;;;5082583;28;20130;-43
2021/01/23 04:40:07;;;;;;;0.90;0.63;;;13.20;75.70;;;;;;5085791;28;20021;-43
2021/01/23 04:42:34;;;;;;;1.60;0.82;;;13.20;75.70;;;;;;5081782;28;20032;-42
2021/01/23 04:45:00;;;;;;;2.17;1.00;;;13.20;75.70;;;;;;5083718;28;20024;-43
2021/01/23 04:47:26;;;;;;;1.35;0.80;;;13.20;75.70;;;;;;5082758;28;20054;-44
2021/01/23 04:49:52;;;;;;;1.52;0.80;;;13.10;75.70;;;;;;5083656;28;20473;-42
2021/01/23 04:52:18;;;;;;;1.50;0.90;;;13.10;75.70;;;;;;5082188;28;20032;-42
2021/01/23 04:54:45;;;;;;;0.82;0.68;;;13.10;75.70;;;;;;5083418;28;20048;-45
2021/01/23 04:57:11;;;;;;;0.85;0.75;;;13.10;75.70;;;;;;5083017;28;20059;-44
2021/01/23 04:59:37;;;;;;;1.17;0.80;;;13.10;76.40;;;;;;5083409;28;20045;-41
2021/01/23 05:02:20;;;;;;;1.30;0.80;;;13.00;75.70;;;;;;5083537;28;20037;-43
2021/01/23 05:04:57;;;;;;;2.05;0.82;;;13.00;75.80;;;;;;5083306;28;20089;-44
2021/01/23 05:07:27;;;;;;;0.98;0.75;;;13.00;75.80;;;;;;5083274;28;20024;-43
2021/01/23 05:09:54;;;;;;;1.25;0.77;;;13.00;75.70;;;;;;5082997;28;20060;-45
2021/01/23 05:12:33;;;;;;;1.57;0.83;;;12.90;75.70;;;;;;5074575;28;20025;-44
2021/01/23 05:15:00;;;;;;;1.40;0.80;;;12.90;75.80;;;;;;5061832;28;20033;-42
2021/01/23 05:17:26;;;;;;;1.75;0.95;;;12.90;75.70;;;;;;5062851;28;20041;-42
2021/01/23 05:19:53;;;;;;;1.63;0.68;;;12.90;75.70;;;;;;5063362;28;20021;-44
2021/01/23 05:22:19;;;;;;;0.70;0.70;;;12.90;75.70;;;;;;5061987;28;20063;-43
2021/01/23 05:24:52;;;;;;;1.48;1.10;;;12.90;75.80;;;;;;5063218;28;20092;-46
2021/01/23 05:27:19;;;;;;;1.15;0.90;;;12.80;75.70;;;;;;5061484;28;20056;-45
2021/01/23 05:29:58;;;;;;;1.52;0.93;;;12.80;75.80;;;;;;5063246;28;20029;-44
2021/01/23 05:32:25;;;;;;;2.85;1.10;;;12.80;75.80;;;;;;5063087;28;20083;-42
2021/01/23 05:34:51;;;;;;;1.38;0.80;;;12.80;75.80;;;;;;5063116;28;20032;-43
2021/01/23 05:37:34;;;;;;;1.42;1.00;;;12.80;75.90;;;;;;5062983;28;20042;-43
2021/01/23 05:40:00;;;;;;;2.50;0.80;;;12.80;75.80;;;;;;5063855;28;20029;-42
2021/01/23 05:42:26;;;;;;;1.35;0.98;;;12.70;75.80;;;;;;5073551;28;20025;-46
2021/01/23 05:45:09;;;;;;;1.25;0.90;;;12.70;75.80;;;;;;5062994;28;20025;-43
2021/01/23 05:47:35;;;;;;;1.50;1.05;;;12.70;75.90;;;;;;5072961;28;20544;-42
2021/01/23 05:50:01;;;;;;;1.67;0.82;;;12.70;75.90;;;;;;5081700;28;20036;-43
2021/01/23 05:52:28;;;;;;;1.75;1.10;;;12.70;75.80;;;;;;5083020;28;20021;-43
2021/01/23 05:54:55;;;;;;;0.85;0.80;;;12.60;75.80;;;;;;5082967;28;20028;-43
2021/01/23 05:57:21;;;;;;;1.05;0.80;;;12.60;75.90;;;;;;5082693;28;20047;-42
2021/01/23 05:59:47;;;;;;;0.88;0.60;;;12.60;75.90;;;;;;5084688;28;20129;-46
2021/01/23 06:02:14;;;;;;;1.10;0.88;;;12.60;76.00;;;;;;5086604;28;20905;-43
2021/01/23 06:04:42;;;;;;;1.17;0.77;;;12.60;75.90;;;;;;5101109;28;20027;-43
2021/01/23 06:07:09;;;;;;;1.00;0.80;;;12.50;75.90;;;;;;5094249;28;20288;-44
2021/01/23 06:09:37;;;;;;;1.83;0.85;;;12.50;75.90;;;;;;5086165;28;20027;-44
2021/01/23 06:12:04;;;;;;;1.33;1.00;;;12.50;75.90;;;;;;5089585;28;20028;-42
2021/01/23 06:14:39;;;;;;;2.15;1.30;;;12.50;76.10;;;;;;5081355;28;20092;-42
2021/01/23 06:17:05;;;;;;;1.02;0.80;;;12.50;76.00;;;;;;5084018;28;20047;-43
2021/01/23 06:19:34;;;;;;;1.37;1.00;;;12.50;76.10;;;;;;5087509;28;20032;-43
2021/01/23 06:22:00;;;;;;;1.63;0.70;;;12.40;75.90;;;;;;5088180;28;20795;-42
2021/01/23 06:24:33;;;;;;;1.17;0.95;;;12.40;75.90;;;;;;5087831;28;20039;-43
2021/01/23 06:27:00;;;;;;;1.48;0.93;;;12.40;76.00;;;;;;5087412;28;20028;-43
2021/01/23 06:29:39;;;;;;;1.20;0.90;;;12.40;76.10;;;;;;5078510;28;20029;-43
2021/01/23 06:32:14;;;;;;;2.30;0.90;;;12.30;76.00;;;;;;5075590;28;20047;-42
2021/01/23 06:34:53;;;;;;;1.65;1.00;;;12.30;76.10;;;;;;5080898;28;20025;-43
2021/01/23 06:37:23;;;;;;;1.23;1.00;;;12.30;76.10;;;;;;5084205;28;20024;-43
2021/01/23 06:40:10;;;;;;;1.73;0.98;;;12.30;76.00;;;;;;5083658;28;20021;-43
2021/01/23 06:42:56;;;;;;;1.48;0.93;;;12.30;76.10;;;;;;5080614;28;20025;-44
2021/01/23 06:45:26;;;;;;;1.38;1.00;;;12.20;76.00;;;;;;5085821;28;20033;-44
2021/01/23 06:47:53;;;;;;;1.73;1.00;;;12.20;76.10;;;;;;5084481;28;20489;-45
2021/01/23 06:50:48;;;;;;;1.30;1.00;;;12.20;76.10;;;;;;5085414;28;20027;-42
2021/01/23 06:53:20;;;;;;;1.20;1.10;;;12.20;76.00;;;;;;5084112;28;20028;-42
2021/01/23 06:55:56;;;;;;;1.55;0.93;;;12.20;76.30;;;;;;5085624;28;20082;-43
2021/01/23 06:58:25;;;;;;;1.70;1.10;;;12.10;76.10;;;;;;5085502;28;20061;-42
2021/01/23 07:00:53;;;;;;;1.77;0.90;;;12.10;76.00;;;;;;5085124;28;20088;-43
2021/01/23 07:03:21;;;;;;;1.63;1.05;;;12.10;76.10;;;;;;5085471;28;20080;-43
2021/01/23 07:05:55;;;;;;;1.30;0.90;;;12.10;76.10;;;;;;5067440;28;20048;-42
2021/01/23 07:08:25;;;;;;;1.52;0.93;;;12.10;76.10;;;;;;5065318;28;20084;-44
2021/01/23 07:11:10;;;;;;;1.23;1.13;;;12.10;76.20;;;;;;5072731;28;20025;-42
2021/01/23 07:13:37;;;;;;;1.55;1.17;;;12.00;76.30;;;;;;5085395;28;20035;-44
2021/01/23 07:16:04;;;;;;;1.40;1.20;;;12.00;76.10;;;;;;5085326;28;20817;-43
2021/01/23 07:18:30;;;;;;;1.65;0.95;;;12.00;76.10;;;;;;5085131;28;20044;-42
2021/01/23 07:20:56;;;;;;;1.27;0.90;;;12.00;76.20;;;;;;5085148;28;20062;-43
2021/01/23 07:23:22;;;;;;;1.25;1.10;;;12.00;76.30;;;;;;5085099;28;20024;-43
2021/01/23 07:25:49;;;;;;;1.40;1.10;;;11.90;76.20;;;;;;5085112;28;20048;-43
2021/01/23 07:28:22;;;;;;;1.00;0.90;;;11.90;76.10;;;;;;5085164;28;20020;-43
2021/01/23 07:30:48;;;;;;;1.27;0.90;;;11.90;76.30;;;;;;5083438;28;20405;-42
2021/01/23 07:33:30;;;;;;;1.38;1.13;;;11.90;76.40;;;;;;5084864;28;20027;-42
2021/01/23 07:35:56;;;;;;;1.63;1.15;;;11.90;76.20;;;;;;5083538;28;20043;-43
2021/01/23 07:38:22;;;;;;;1.13;0.82;;;11.80;76.30;;;;;;5084880;28;20389;-42
2021/01/23 07:40:51;;;;;;;1.35;0.98;;;11.80;76.10;;;;;;5067045;28;20048;-43
2021/01/23 07:43:17;;;;;;;1.38;1.10;;;11.80;76.30;;;;;;5050570;28;20033;-42
2021/01/23 07:45:43;;;;;;;1.42;1.02;;;11.80;76.40;;;;;;5083438;28;20088;-44
2021/01/23 07:48:11;;;;;;;1.67;1.02;;;11.80;76.20;;;;;;5099983;28;20409;-43
2021/01/23 07:50:38;;;;;;;1.17;0.95;;;11.80;76.20;;;;;;5084504;28;20028;-42
2021/01/23 07:53:19;;;;;;;1.55;1.20;;;11.70;76.30;;;;;;5083069;28;20097;-42
2021/01/23 07:55:46;;;;;;;1.52;1.15;;;11.70;76.20;;;;;;5080056;28;20040;-42
2021/01/23 07:58:14;;;;;;;1.23;0.93;;;11.70;76.30;;;;;;5084323;28;20109;-42
2021/01/23 08:00:41;;;;;;;1.30;1.08;;;11.70;76.20;;;;;;5084359;28;20265;-44
2021/01/23 08:03:07;;;;;;;1.93;1.30;;;11.70;76.30;;;;;;5084285;28;20025;-41
2021/01/23 08:05:52;;;;;;;1.52;1.17;;;11.70;76.30;;;;;;5084264;28;21133;-43
2021/01/23 08:08:34;;;;;;;1.30;1.10;;;11.60;76.20;;;;;;5084320;28;20035;-43
2021/01/23 08:11:01;;;;;;;1.58;1.10;;;11.60;76.40;;;;;;5087768;28;20027;-42
2021/01/23 08:13:29;;;;;;;1.27;1.10;;;11.60;76.40;;;;;;5082091;28;20404;-43
2021/01/23 08:16:11;;;;;;;1.40;1.10;;;11.60;76.30;;;;;;5082883;28;20108;-42
2021/01/23 08:18:38;;;;;;;1.67;1.10;;;11.50;76.90;;;;;;5077866;28;20040;-42
2021/01/23 08:21:18;;;;;;;1.33;1.23;;;11.50;76.30;;;;;;5064187;28;20043;-43
2021/01/23 08:23:44;;;;;;;1.83;1.15;;;11.50;76.40;;;;;;5083897;28;20024;-43
2021/01/23 08:26:10;;;;;;;1.42;1.17;;;11.50;76.30;;;;;;5078991;28;20036;-42
2021/01/23 08:28:42;;;;;;;1.83;1.48;;;11.50;76.30;;;;;;5081970;28;20032;-42
2021/01/23 08:31:18;;;;;;;2.25;1.30;;;11.50;76.40;;;;;;5083277;28;20043;-43
2021/01/23 08:33:47;;;;;;;1.20;1.10;;;11.40;76.30;;;;;;5080784;28;20044;-42
2021/01/23 08:36:14;;;;;;;1.33;1.15;;;11.40;76.30;;;;;;5079032;28;20131;-42
2021/01/23 08:38:40;;;;;;;2.10;1.35;;;11.40;76.30;;;;;;5083303;28;20035;-43
2021/01/23 08:41:06;;;;;;;1.80;1.35;;;11.40;76.40;;;;;;5084801;28;20021;-42
2021/01/23 08:43:32;;;;;;;1.52;1.20;;;11.40;76.40;;;;;;5084803;28;20165;-42
2021/01/23 08:45:59;;;;;;;1.52;1.20;;;11.40;76.30;;;;;;5083645;28;20031;-41
2021/01/23 08:48:25;;;;;;;1.10;0.98;;;11.30;76.40;;;;;;5083640;28;20070;-42
2021/01/23 08:50:51;;;;;;;1.83;1.15;;;11.30;76.30;;;;;;5083165;28;20027;-42
2021/01/23 08:53:17;;;;;;;1.80;1.23;;;11.30;76.40;;;;;;5083718;28;20036;-43
2021/01/23 08:55:43;;;;;;;1.88;1.50;;;11.30;76.50;;;;;;5083357;28;20032;-42
2021/01/23 08:58:11;;;;;;;1.33;1.20;;;11.30;76.50;;;;;;5083553;28;20133;-41
2021/01/23 09:00:37;;;;;;;1.70;1.40;;;11.30;76.40;;;;;;5083459;28;20032;-43
2021/01/23 09:03:03;;;;;;;1.40;1.30;;;11.20;76.40;;;;;;5083249;28;20055;-46
2021/01/23 09:05:29;;;;;;;1.57;1.27;;;11.20;76.40;;;;;;5064916;28;20120;-41
2021/01/23 09:07:56;;;;;;;1.80;1.40;;;11.20;76.40;;;;;;5063443;28;20034;-42
2021/01/23 09:10:22;;;;;;;1.90;1.52;;;11.20;76.40;;;;;;5067024;28;20032;-43
2021/01/23 09:12:48;;;;;;;1.80;1.40;;;11.20;76.40;;;;;;5086080;28;20054;-41
2021/01/23 09:15:15;;;;;;;1.88;1.48;;;11.20;76.50;;;;;;5080133;28;20031;-42
2021/01/23 09:17:41;;;;;;;2.63;1.57;;;11.10;76.40;;;;;;5081234;28;20148;-45
2021/01/23 09:20:08;;;;;;;1.23;1.00;;;11.10;76.50;;;;;;5084290;28;20725;-42
2021/01/23 09:22:34;;;;;;;1.38;1.10;;;11.10;76.60;;;;;;5078844;28;20481;-42
2021/01/23 09:25:01;;;;;;;2.13;1.20;;;11.10;76.50;;;;;;5079448;28;20048;-43
2021/01/23 09:27:27;;;;;;;1.67;1.40;;;11.10;76.50;;;;;;5078947;28;20036;-41
2021/01/23 09:29:53;;;;;;;1.67;1.50;;;11.10;76.40;;;;;;5084153;28;20055;-42
2021/01/23 09:32:20;;;;;;;2.05;1.70;;;11.00;76.40;;;;;;5081372;28;20028;-42
2021/01/23 09:34:47;;;;;;;2.15;1.60;;;11.00;76.50;;;;;;5077163;28;21312;-43
2021/01/23 09:37:13;;;;;;;2.67;1.43;;;11.00;76.50;;;;;;5079596;28;20036;-43
2021/01/23 09:39:39;;;;;;;1.33;1.20;;;11.00;76.50;;;;;;5083925;28;20031;-42
2021/01/23 09:42:05;;;;;;;1.52;1.30;;;11.00;76.50;;;;;;5091340;28;20056;-43
2021/01/23 09:44:32;;;;;;;1.63;1.42;;;11.00;76.50;;;;;;5087125;28;20112;-42
2021/01/23 09:46:58;;;;;;;1.67;1.42;;;11.00;76.50;;;;;;5086950;28;20025;-42
2021/01/23 09:49:24;;;;;;;1.90;1.33;;;10.90;76.50;;;;;;5085408;28;20028;-43
2021/01/23 09:51:50;;;;;;;2.25;1.50;;;10.90;76.50;;;;;;5086641;28;20032;-42
2021/01/23 09:54:17;;;;;;;2.60;1.60;;;10.90;76.50;;;;;;5086692;28;20165;-42
2021/01/23 09:56:43;;;;;;;1.90;1.60;;;10.90;76.50;;;;;;5085287;28;20044;-44
2021/01/23 09:59:09;;;;;;;1.75;1.30;;;10.90;76.50;;;;;;5088187;28;20047;-42
2021/01/23 10:01:35;;;;;;;2.58;2.03;;;10.90;76.60;;;;;;5106699;28;20123;-43
2021/01/23 10:04:01;;;;;;;2.10;1.60;;;10.80;76.60;;;;;;5090618;28;20028;-41
2021/01/23 10:06:28;;;;;;;1.97;1.60;;;10.80;76.60;;;;;;5086694;28;20020;-43
2021/01/23 10:08:54;;;;;;;2.28;1.50;;;10.80;76.60;;;;;;5086557;28;20021;-42
2021/01/23 10:11:22;;;;;;;2.30;1.60;;;10.80;76.50;;;;;;5086824;28;20154;-43
2021/01/23 10:13:48;;;;;;;3.28;1.48;;;10.80;76.60;;;;;;5086368;28;20028;-42
2021/01/23 10:16:15;;;;;;;3.22;1.60;;;10.80;76.60;;;;;;5086406;28;20040;-41
2021/01/23 10:18:41;;;;;;;2.30;1.58;;;10.70;76.60;;;;;;5088733;28;20033;-43
2021/01/23 10:21:07;;;;;;;1.85;1.60;;;10.80;76.60;;;;;;5086429;28;20029;-42
2021/01/23 10:23:33;;;;;;;1.70;1.40;;;10.70;76.60;;;;;;5086139;28;20056;-41
2021/01/23 10:26:00;;;;;;;2.08;1.67;;;10.70;76.60;;;;;;5086394;28;20029;-43
2021/01/23 10:28:26;;;;;;;2.67;1.88;;;10.70;76.60;;;;;;5086482;28;20029;-42
2021/01/23 10:30:53;;;;;;;1.60;1.42;;;10.70;76.70;;;;;;5086313;28;20021;-41
2021/01/23 10:33:19;;;;;;;1.90;1.70;;;10.60;76.60;;;;;;5085764;28;20047;-41
2021/01/23 10:35:45;;;;;;;1.73;1.52;;;10.70;76.70;;;;;;5085880;28;20029;-41
2021/01/23 10:38:11;;;;;;;2.58;1.85;;;10.60;76.70;;;;;;5086133;28;20025;-40
2021/01/23 10:40:38;;;;;;;2.05;1.70;;;10.60;76.70;;;;;;5086317;28;20473;-43
2021/01/23 10:43:04;;;;;;;1.80;1.67;;;10.60;76.70;;;;;;5085719;28;20040;-43
2021/01/23 10:45:30;;;;;;;2.95;1.70;;;10.60;76.70;;;;;;5085132;28;20028;-41
2021/01/23 10:47:56;;;;;;;2.13;1.65;;;10.60;76.80;;;;;;5085890;28;20032;-40
2021/01/23 10:50:22;;;;;;;2.33;1.67;;;10.50;76.60;;;;;;5085567;28;20138;-42
2021/01/23 10:52:49;;;;;;;2.35;2.10;;;10.50;76.70;;;;;;5085489;28;20078;-42
2021/01/23 10:55:15;;;;;;;1.50;1.30;;;10.50;76.70;;;;;;5085688;28;20028;-42
2021/01/23 10:57:41;;;;;;;5.28;1.92;;;10.50;76.80;;;;;;5085538;28;20048;-43
2021/01/23 11:00:08;;;;;;;2.10;1.90;;;10.50;76.70;;;;;;5085553;28;20048;-42
2021/01/23 11:02:41;;;;;;;2.10;1.80;;;10.50;76.80;;;;;;5085355;28;20032;-42
2021/01/23 11:05:10;;;;;;;2.35;1.77;;;10.40;76.80;;;;;;5085396;28;20029;-40
2021/01/23 11:07:36;;;;;;;2.20;2.00;;;10.40;76.70;;;;;;5085481;28;20024;-42
2021/01/23 11:10:04;;;;;;;2.30;1.67;;;10.40;76.80;;;;;;5085985;28;20052;-42
2021/01/23 11:12:30;;;;;;;2.63;2.08;;;10.40;76.90;;;;;;5085087;28;20036;-42
2021/01/23 11:14:56;;;;;;;2.65;1.70;;;10.40;76.80;;;;;;5085415;28;20021;-41
2021/01/23 11:17:22;;;;;;;3.15;1.98;;;10.40;76.90;;;;;;5085327;28;20052;-40
2021/01/23 11:19:48;;;;;;;2.25;1.75;;;10.30;76.80;;;;;;5085143;28;20025;-41
2021/01/23 11:22:14;;;;;;;2.08;1.88;;;10.40;76.90;;;;;;5084825;28;20509;-42
2021/01/23 11:24:41;;;;;;;1.90;1.70;;;10.30;76.90;;;;;;5084989;28;20053;-41
2021/01/23 11:27:07;;;;;;;1.98;1.70;;;10.30;76.90;;;;;;5085075;28;20023;-41
2021/01/23 11:29:34;;;;;;;2.97;2.00;;;10.30;76.90;;;;;;5085052;28;20088;-44
2021/01/23 11:32:01;;;;;;;2.25;1.85;;;10.30;76.90;;;;;;5085083;28;20051;-44
2021/01/23 11:34:27;;;;;;;2.20;2.00;;;10.30;76.90;;;;;;5083311;28;20050;-43
2021/01/23 11:36:53;;;;;;;2.90;2.20;;;10.20;76.90;;;;;;5084884;28;20078;-41
2021/01/23 11:39:19;;;;;;;2.88;1.88;;;10.20;76.90;;;;;;5084790;28;20059;-43
2021/01/23 11:41:46;;;;;;;1.90;1.70;;;10.20;76.90;;;;;;5085410;28;20028;-41
2021/01/23 11:44:12;;;;;;;2.55;1.95;;;10.20;76.90;;;;;;5084734;28;20028;-41
2021/01/23 11:46:38;;;;;;;2.60;2.10;;;10.20;76.90;;;;;;5084748;28;20036;-41
2021/01/23 11:49:04;;;;;;;2.35;1.95;;;10.20;76.90;;;;;;5084494;28;20028;-42
2021/01/23 11:51:31;;;;;;;2.30;1.80;;;10.10;76.90;;;;;;5083222;28;20796;-41
2021/01/23 11:53:58;;;;;;;1.80;1.70;;;10.10;76.90;;;;;;5084329;28;20098;-43
2021/01/23 11:56:26;;;;;;;2.00;1.80;;;10.10;76.90;;;;;;5084203;28;20110;-40
2021/01/23 11:58:56;;;;;;;1.83;1.60;;;10.10;76.90;;;;;;5084286;28;20041;-42
2021/01/23 12:01:22;;;;;;;2.10;1.90;;;10.10;76.90;;;;;;5084259;28;20054;-42
2021/01/23 12:03:48;;;;;;;4.13;1.85;;;10.10;77.00;;;;;;5085826;28;20020;-42
2021/01/23 12:06:14;;;;;;;2.50;2.15;;;10.10;77.00;;;;;;5084227;28;20025;-43
2021/01/23 12:08:41;;;;;;;3.38;2.08;;;10.10;77.00;;;;;;5082924;28;20455;-41
2021/01/23 12:11:07;;;;;;;2.22;1.98;;;10.00;77.00;;;;;;5084232;28;20032;-42
2021/01/23 12:13:33;;;;;;;1.95;1.73;;;10.00;77.00;;;;;;5102686;28;20024;-42
2021/01/23 12:15:59;;;;;;;2.40;1.95;;;10.00;77.00;;;;;;5104264;28;20581;-43
2021/01/23 12:18:25;;;;;;;2.22;1.90;;;10.00;77.00;;;;;;5104321;28;20024;-42
2021/01/23 12:20:52;;;;;;;2.88;2.17;;;10.00;77.00;;;;;;5104433;28;20035;-41
2021/01/23 12:23:18;;;;;;;2.58;2.15;;;10.00;77.00;;;;;;5104156;28;20063;-41
2021/01/23 12:25:45;;;;;;;2.93;1.90;;;9.90;77.00;;;;;;5099568;28;20029;-43
2021/01/23 12:28:11;;;;;;;2.33;1.88;;;9.90;77.00;;;;;;5104325;28;20115;-42
2021/01/23 12:30:37;;;;;;;2.22;1.90;;;9.90;77.00;;;;;;5104154;28;20023;-42
2021/01/23 12:33:03;;;;;;;2.40;2.20;;;9.90;77.10;;;;;;5104313;28;20088;-43
2021/01/23 12:35:29;;;;;;;2.53;2.30;;;9.90;77.10;;;;;;5103635;28;20020;-41
2021/01/23 12:37:58;;;;;;;2.65;2.10;;;9.90;77.10;;;;;;5104224;28;20490;-41
2021/01/23 12:40:25;;;;;;;2.40;1.80;;;9.90;77.10;;;;;;5103177;28;20087;-41
2021/01/23 12:42:51;;;;;;;1.75;1.50;;;9.80;76.90;;;;;;5071905;28;20028;-41
2021/01/23 12:45:17;;;;;;;2.23;1.90;;;9.80;77.00;;;;;;5063450;28;20094;-41
2021/01/23 12:47:44;;;;;;;1.98;1.77;;;9.80;77.10;;;;;;5063400;28;20017;-41
2021/01/23 12:50:11;;;;;;;2.33;1.98;;;9.80;77.00;;;;;;5063543;28;20052;-42
2021/01/23 12:52:37;;;;;;;;;;;9.80;77.10;;;;;;5064132;28;20048;-40
2021/01/23 12:55:07;;;;;;;2.13;1.90;;;9.80;77.10;;;;;;5067527;28;19908;-41